Portada
METAR-TAF:

METAR-TAF

Aeroports :

Kapolei, Hawaii, Estats Units d'Amèrica

latitud: 21-18-30N, longitud: 158-04-05W, altitud: 10 m

Observació

L'informe es va fer fa 1 hora i 29 minuts, a les 09:53 UTC
Vent 3 kt del Est/Nord-Est
Temperatura 21°C
Humitat 78%
Pressió 1019 hPa
Visibilitat: 16.1 km
Cel clar

METAR: PHJR 250953Z AUTO 07003KT 10SM CLR 21/17 A3010 RMK AO2 SLP200 T02110172 403000211 TSNO

Hora: 01:22 (11:22 UTC)

Pronòstic

L'informe es va fer fa 5 hores i 39 minuts, a les 05:43 UTC
Pronòstic vàlid del 25 a les 06 UTC al 26 a les 06 UTC
Vent 5 kt del Est
Visibilitat: 10 km
Escasses núvols a una alçada de 4500 ft
A partir de les 25 a les 2100 UTC
Vent 11 kt del Sud/Sud-Est
Visibilitat: 10 km
Escasses núvols a una alçada de 4500 ft

TAF: PHJR 250543Z 2506/2606 09005KT P6SM FEW045 FM252100 16011KT P6SM FEW045

Observacions i pronòstics meteorològics de més de 4000 aeroports (METAR i TAF).

Les estacions disponibles són els punts grocs i vermells al mapa.

Posi el ratolí al punt desitjat per veure el nom de l'estació.

Feu clic per veure les observacions i els pronòstics meteorològics.

Per canviar el mapa: feu clic els botons verds amb una creu de color negre per apropar; al botó verd amb un guió per allunyar la imatge; o en les fletxes verdes per a mapes adjacents.


METAR-TAF: